createdAt,value
2023-05-14T00:01:38.244Z,7.10
2023-05-14T00:06:44.053Z,8.38
2023-05-14T00:11:52.099Z,7.75
2023-05-14T00:16:57.463Z,8.10
2023-05-14T00:22:02.892Z,8.38
2023-05-14T00:27:11.085Z,7.03
2023-05-14T00:32:17.928Z,7.00
2023-05-14T00:37:23.388Z,8.07
2023-05-14T00:42:31.558Z,6.43
2023-05-14T00:47:37.155Z,6.37
2023-05-14T00:52:43.369Z,6.78
2023-05-14T00:57:52.264Z,6.60
2023-05-14T01:02:57.672Z,7.10
2023-05-14T01:08:10.954Z,7.38
2023-05-14T01:13:29.193Z,6.93
2023-05-14T01:18:36.182Z,7.17
2023-05-14T01:23:44.324Z,7.32
2023-05-14T01:28:52.044Z,6.50
2023-05-14T01:33:59.199Z,6.80
2023-05-14T01:39:09.778Z,6.72
2023-05-14T01:44:15.636Z,7.10
2023-05-14T01:49:22.921Z,6.70
2023-05-14T01:54:30.975Z,6.78
2023-05-14T01:59:36.375Z,6.55
2023-05-14T02:04:41.915Z,6.73
2023-05-14T02:09:49.937Z,6.50
2023-05-14T02:14:55.471Z,5.47
2023-05-14T02:20:00.949Z,5.70
2023-05-14T02:25:10.291Z,6.47
2023-05-14T02:30:15.989Z,5.80
2023-05-14T02:35:23.037Z,6.47
2023-05-14T02:40:31.313Z,6.55
2023-05-14T02:45:36.702Z,6.20
2023-05-14T02:50:42.057Z,6.30
2023-05-14T02:55:50.122Z,6.13
2023-05-14T03:00:55.949Z,6.40
2023-05-14T03:06:01.953Z,5.63
2023-05-14T03:11:09.988Z,6.97
2023-05-14T03:16:15.927Z,6.20
2023-05-14T03:21:21.520Z,6.37
2023-05-14T03:26:30.130Z,7.25
2023-05-14T03:31:35.619Z,6.33
2023-05-14T03:36:41.362Z,7.70
2023-05-14T03:41:49.705Z,7.10
2023-05-14T03:46:55.147Z,7.25
2023-05-14T03:52:01.082Z,7.13
2023-05-14T03:57:09.283Z,7.10
2023-05-14T04:02:14.699Z,7.30
2023-05-14T04:07:20.260Z,7.63
2023-05-14T04:12:32.193Z,6.97
2023-05-14T04:17:37.874Z,7.10
2023-05-14T04:22:43.276Z,7.10
2023-05-14T04:27:51.685Z,7.28
2023-05-14T04:32:57.667Z,7.57
2023-05-14T04:38:03.306Z,7.80
2023-05-14T04:43:11.304Z,7.00
2023-05-14T04:48:17.335Z,7.33
2023-05-14T04:53:22.788Z,8.10
2023-05-14T04:58:34.507Z,7.30
2023-05-14T05:03:40.581Z,8.50
2023-05-14T05:08:46.154Z,7.40
2023-05-14T05:13:54.344Z,8.15
2023-05-14T05:19:00.206Z,7.13
2023-05-14T05:24:08.066Z,7.23
2023-05-14T05:29:16.100Z,7.95
2023-05-14T05:34:21.852Z,8.30
2023-05-14T05:39:27.399Z,8.10
2023-05-14T05:44:35.729Z,7.82
2023-05-14T05:49:41.737Z,7.75
2023-05-14T05:54:47.248Z,7.27
2023-05-14T05:59:55.447Z,7.32
2023-05-14T06:05:00.947Z,8.95
2023-05-14T06:10:07.204Z,8.13
2023-05-14T06:15:15.641Z,8.90
2023-05-14T06:20:21.750Z,9.00
2023-05-14T06:25:27.484Z,8.60
2023-05-14T06:30:38.087Z,8.35
2023-05-14T06:35:43.607Z,10.05
2023-05-14T06:40:49.044Z,8.77
2023-05-14T06:45:57.529Z,10.30
2023-05-14T06:51:03.509Z,9.60
2023-05-14T06:56:08.993Z,9.07
2023-05-14T07:01:17.252Z,9.30
2023-05-14T07:06:22.728Z,8.75
2023-05-14T07:11:28.167Z,9.98
2023-05-14T07:16:36.204Z,9.23
2023-05-14T07:21:41.785Z,8.77
2023-05-14T07:26:47.166Z,9.43
2023-05-14T07:31:55.084Z,9.70
2023-05-14T07:37:00.563Z,10.10
2023-05-14T07:42:07.680Z,9.60
2023-05-14T07:47:15.901Z,6.47
2023-05-14T07:52:21.597Z,7.87
2023-05-14T07:57:27.050Z,8.27
2023-05-14T08:02:35.449Z,7.25
2023-05-14T08:07:41.567Z,6.70
2023-05-14T08:12:47.064Z,7.38
2023-05-14T08:17:55.123Z,7.65
2023-05-14T08:23:00.707Z,6.70
2023-05-14T08:28:06.185Z,8.38
2023-05-14T08:33:14.098Z,7.97
2023-05-14T08:38:19.483Z,6.63
2023-05-14T08:43:30.375Z,5.80
2023-05-14T08:48:38.897Z,6.70
2023-05-14T08:53:44.600Z,8.10
2023-05-14T08:58:50.111Z,9.33
2023-05-14T09:03:58.476Z,10.85
2023-05-14T09:09:04.226Z,7.72
2023-05-14T09:14:09.766Z,9.80
2023-05-14T09:19:19.519Z,8.52
2023-05-14T09:24:32.614Z,8.05
2023-05-14T09:29:38.255Z,7.87
2023-05-14T09:34:46.302Z,7.03
2023-05-14T09:39:55.083Z,7.75
2023-05-14T09:45:00.605Z,7.72
2023-05-14T09:50:10.556Z,5.90
2023-05-14T09:55:32.543Z,6.05
2023-05-14T10:00:38.841Z,4.97
2023-05-14T10:05:47.666Z,4.30
2023-05-14T10:10:54.315Z,3.10
2023-05-14T10:16:05.528Z,3.92
2023-05-14T10:21:14.270Z,3.13
2023-05-14T10:26:21.205Z,4.17
2023-05-14T10:31:48.892Z,3.78
2023-05-14T10:36:57.020Z,3.30
2023-05-14T10:42:02.726Z,3.10
2023-05-14T10:47:09.114Z,3.92
2023-05-14T10:52:19.892Z,3.10
2023-05-14T10:57:27.842Z,3.10
2023-05-14T11:02:37.064Z,2.88
2023-05-14T11:07:48.031Z,2.75
2023-05-14T11:12:54.649Z,2.53
2023-05-14T11:18:00.225Z,3.00
2023-05-14T11:23:09.001Z,2.70
2023-05-14T11:28:14.775Z,2.67
2023-05-14T11:33:20.609Z,3.07
2023-05-14T11:38:28.606Z,2.55
2023-05-14T11:43:34.079Z,2.55
2023-05-14T11:48:39.483Z,2.57
2023-05-14T11:53:49.893Z,2.60
2023-05-14T11:59:00.476Z,2.88
2023-05-14T12:04:07.633Z,2.70
2023-05-14T12:09:19.556Z,2.80
2023-05-14T12:14:26.650Z,2.65
2023-05-14T12:19:34.068Z,2.70
2023-05-14T12:24:42.257Z,2.40
2023-05-14T12:29:47.849Z,2.25
2023-05-14T12:34:54.002Z,3.00
2023-05-14T12:40:02.295Z,2.50
2023-05-14T12:45:09.219Z,2.63
2023-05-14T12:50:15.075Z,2.60
2023-05-14T12:55:23.552Z,3.00
2023-05-14T13:00:28.887Z,3.07
2023-05-14T13:05:34.247Z,2.92
2023-05-14T13:10:42.301Z,2.92
2023-05-14T13:15:48.792Z,2.57
2023-05-14T13:20:54.209Z,2.72
2023-05-14T13:26:03.584Z,2.35
2023-05-14T13:31:10.836Z,2.73
2023-05-14T13:36:17.643Z,2.95
2023-05-14T13:41:26.358Z,2.50
2023-05-14T13:46:31.898Z,2.63
2023-05-14T13:51:37.353Z,2.70
2023-05-14T13:56:45.575Z,2.38
2023-05-14T14:01:51.762Z,2.90
2023-05-14T14:06:57.490Z,2.40
2023-05-14T14:12:06.799Z,2.75
2023-05-14T14:17:12.273Z,3.10
2023-05-14T14:22:17.758Z,2.80
2023-05-14T14:27:26.122Z,2.85
2023-05-14T14:32:32.201Z,2.55
2023-05-14T14:37:37.630Z,2.60
2023-05-14T14:42:46.040Z,2.50
2023-05-14T14:47:52.401Z,2.70
2023-05-14T14:52:58.100Z,2.97
2023-05-14T14:58:06.164Z,2.67
2023-05-14T15:03:12.127Z,2.75
2023-05-14T15:08:18.196Z,2.60
2023-05-14T15:13:27.193Z,2.90
2023-05-14T15:18:32.857Z,2.63
2023-05-14T15:23:38.451Z,3.05
2023-05-14T15:28:46.583Z,2.73
2023-05-14T15:33:52.454Z,2.60
2023-05-14T15:38:57.928Z,2.50
2023-05-14T15:44:05.965Z,2.75
2023-05-14T15:49:11.456Z,2.77
2023-05-14T15:54:17.027Z,2.80
2023-05-14T15:59:26.413Z,2.50
2023-05-14T16:04:31.991Z,3.00
2023-05-14T16:09:37.431Z,3.00
2023-05-14T16:14:45.628Z,3.42
2023-05-14T16:19:51.975Z,2.93
2023-05-14T16:25:01.834Z,3.20
2023-05-14T16:30:12.520Z,2.85
2023-05-14T16:35:18.163Z,3.25
2023-05-14T16:40:24.377Z,3.00
2023-05-14T16:45:34.937Z,2.80
2023-05-14T16:50:40.491Z,2.58
2023-05-14T16:55:45.955Z,3.10
2023-05-14T17:00:53.949Z,3.70
2023-05-14T17:05:59.547Z,3.33
2023-05-14T17:11:06.145Z,4.00
2023-05-14T17:16:14.101Z,4.33
2023-05-14T17:21:19.209Z,3.78
2023-05-14T17:26:24.664Z,3.50
2023-05-14T17:31:32.846Z,3.80
2023-05-14T17:36:38.444Z,3.72
2023-05-14T17:41:44.630Z,3.53
2023-05-14T17:46:52.714Z,3.57
2023-05-14T17:51:58.444Z,3.78
2023-05-14T17:57:07.408Z,4.22
2023-05-14T18:02:15.949Z,3.87
2023-05-14T18:07:22.726Z,3.70
2023-05-14T18:12:29.316Z,3.35
2023-05-14T18:17:39.373Z,3.00
2023-05-14T18:22:44.992Z,3.00
2023-05-14T18:27:50.517Z,3.28
2023-05-14T18:33:00.291Z,2.45
2023-05-14T18:38:08.156Z,3.00
2023-05-14T18:43:14.821Z,2.70
2023-05-14T18:48:23.268Z,3.00
2023-05-14T18:53:29.470Z,2.50
2023-05-14T18:58:34.872Z,3.07
2023-05-14T19:03:45.169Z,2.50
2023-05-14T19:08:50.850Z,2.63
2023-05-14T19:13:56.569Z,2.23
2023-05-14T19:19:05.371Z,2.60
2023-05-14T19:24:11.383Z,2.80
2023-05-14T19:29:17.189Z,3.27
2023-05-14T19:34:25.838Z,2.63
2023-05-14T19:39:31.665Z,3.10
2023-05-14T19:44:37.291Z,2.70
2023-05-14T19:49:45.997Z,2.80
2023-05-14T19:54:52.602Z,2.83
2023-05-14T19:59:58.453Z,2.80
2023-05-14T20:05:07.195Z,2.87
2023-05-14T20:10:14.284Z,2.95
2023-05-14T20:15:20.376Z,2.70
2023-05-14T20:20:32.761Z,3.37
2023-05-14T20:25:41.146Z,2.90
2023-05-14T20:30:46.813Z,3.28
2023-05-14T20:35:54.884Z,3.00
2023-05-14T20:41:00.483Z,2.80
2023-05-14T20:46:07.617Z,3.10
2023-05-14T20:51:15.876Z,2.90
2023-05-14T20:56:21.506Z,3.20
2023-05-14T21:01:26.981Z,3.15
2023-05-14T21:06:35.008Z,3.10
2023-05-14T21:11:40.523Z,3.00
2023-05-14T21:16:45.965Z,3.20
2023-05-14T21:21:54.041Z,2.97
2023-05-14T21:27:00.066Z,2.97
2023-05-14T21:32:12.258Z,2.60
2023-05-14T21:37:21.329Z,3.15
2023-05-14T21:42:27.579Z,3.30
2023-05-14T21:47:34.007Z,3.40
2023-05-14T21:52:45.597Z,3.40
2023-05-14T21:57:51.233Z,3.40
2023-05-14T22:02:56.693Z,3.70
2023-05-14T22:08:05.018Z,3.40
2023-05-14T22:13:12.569Z,3.50
2023-05-14T22:18:18.411Z,4.03
2023-05-14T22:23:26.502Z,3.80
2023-05-14T22:28:31.830Z,4.25
2023-05-14T22:33:38.283Z,5.13
2023-05-14T22:38:46.451Z,4.87
2023-05-14T22:43:51.821Z,5.28
2023-05-14T22:48:57.146Z,5.13
2023-05-14T22:54:05.223Z,5.17
2023-05-14T22:59:10.560Z,6.28
2023-05-14T23:04:17.226Z,5.72
2023-05-14T23:09:25.511Z,5.13
2023-05-14T23:14:30.971Z,5.50
2023-05-14T23:19:37.065Z,6.28
2023-05-14T23:24:45.283Z,6.20
2023-05-14T23:29:50.881Z,6.83
2023-05-14T23:34:56.424Z,6.32
2023-05-14T23:40:05.157Z,5.93
2023-05-14T23:45:11.865Z,6.27
2023-05-14T23:50:17.386Z,6.32
2023-05-14T23:55:25.852Z,6.35
